Time;durP1;ratioP1;P1;durP2;ratioP2;P2;SDS_P1;SDS_P2;PMS_P1;PMS_P2;Temp;Humidity;BMP_temperature;BMP_pressure;BME280_temperature;BME280_humidity;BME280_pressure;Samples;Min_cycle;Max_cycle;Signal;HPM_P1;HPM_P2
2023/10/09 00:01:01;;;;;;;6.97;4.05;;;;;;;17.33;60.94;97846.28;4944815;28;20099;-82
2023/10/09 00:03:27;;;;;;;8.73;4.13;;;;;;;17.27;61.17;97834.97;4945720;28;20264;-82
2023/10/09 00:05:53;;;;;;;7.70;4.10;;;;;;;17.24;61.63;97840.81;4901679;28;20209;-82
2023/10/09 00:08:21;;;;;;;6.30;4.40;;;;;;;17.14;61.70;97823.22;4909645;28;20183;-82
2023/10/09 00:10:57;;;;;;;6.35;3.80;;;;;;;17.22;61.03;97835.00;4946879;28;20363;-82
2023/10/09 00:13:30;;;;;;;9.25;3.95;;;;;;;17.24;61.03;97827.66;4930244;28;20544;-81
2023/10/09 00:16:14;;;;;;;7.68;3.97;;;;;;;17.21;61.35;97822.91;4899860;28;20270;-82
2023/10/09 00:18:46;;;;;;;6.65;3.85;;;;;;;17.04;61.89;97818.78;4924817;28;20287;-82
2023/10/09 00:21:20;;;;;;;6.97;4.10;;;;;;;17.18;61.88;97820.81;4913958;28;20189;-82
2023/10/09 00:23:52;;;;;;;6.43;4.28;;;;;;;17.04;61.66;97824.03;4908499;28;20275;-82
2023/10/09 00:26:19;;;;;;;8.18;4.03;;;;;;;17.11;62.01;97825.59;4915825;28;20365;-82
2023/10/09 00:28:47;;;;;;;6.07;3.40;;;;;;;17.04;62.39;97812.72;4931385;28;20157;-82
2023/10/09 00:31:16;;;;;;;7.97;3.60;;;;;;;17.13;62.18;97818.22;4913787;28;20196;-82
2023/10/09 00:33:48;;;;;;;6.93;4.13;;;;;;;17.15;62.62;97810.81;4920900;28;20394;-82
2023/10/09 00:36:14;;;;;;;8.77;3.85;;;;;;;17.17;61.96;97821.88;4913614;28;20282;-82
2023/10/09 00:38:51;;;;;;;7.60;3.90;;;;;;;17.22;62.45;97821.84;4913893;28;20233;-82
2023/10/09 00:41:24;;;;;;;5.43;3.53;;;;;;;17.29;62.18;97821.53;4922068;28;20256;-82
2023/10/09 00:43:51;;;;;;;6.53;3.45;;;;;;;17.31;62.42;97824.72;4916481;28;20272;-82
2023/10/09 00:48:47;;;;;;;7.10;4.03;;;;;;;17.33;62.06;97798.91;4930090;28;20650;-82
2023/10/09 00:51:16;;;;;;;8.20;4.05;;;;;;;17.40;62.15;97808.06;4907505;28;20240;-82
2023/10/09 00:54:06;;;;;;;9.23;3.78;;;;;;;17.45;62.34;97799.34;4925076;28;20298;-82
2023/10/09 00:56:39;;;;;;;7.72;3.97;;;;;;;17.39;62.44;97795.97;4910856;28;20584;-82
2023/10/09 00:59:14;;;;;;;5.70;3.65;;;;;;;17.39;62.96;97790.72;4951302;28;20244;-82
2023/10/09 01:01:44;;;;;;;8.35;4.40;;;;;;;17.44;62.64;97799.63;4928562;28;20255;-82
2023/10/09 01:04:10;;;;;;;7.88;4.30;;;;;;;17.46;62.56;97798.31;4920096;28;20287;-82
2023/10/09 01:06:44;;;;;;;7.20;3.78;;;;;;;17.58;62.86;97800.56;4898715;28;20269;-82
2023/10/09 01:09:22;;;;;;;7.13;4.53;;;;;;;17.58;62.19;97790.03;4906469;28;20524;-82
2023/10/09 01:11:49;;;;;;;8.07;3.70;;;;;;;17.53;62.43;97785.59;4893698;28;20287;-82
2023/10/09 01:14:15;;;;;;;6.97;3.85;;;;;;;17.54;62.49;97783.75;4913109;28;20266;-82
2023/10/09 01:16:42;;;;;;;7.03;3.70;;;;;;;17.57;62.48;97784.00;4914001;28;20174;-82
2023/10/09 01:19:13;;;;;;;6.80;3.90;;;;;;;17.60;62.45;97780.03;4912962;28;20347;-82
2023/10/09 01:21:42;;;;;;;5.45;4.20;;;;;;;17.63;63.04;97783.94;4918168;28;20654;-82
2023/10/09 01:24:08;;;;;;;9.40;4.35;;;;;;;17.68;62.44;97782.06;4927017;28;20178;-81
2023/10/09 01:26:50;;;;;;;10.02;4.50;;;;;;;17.87;62.58;97773.50;4911231;28;20175;-81
2023/10/09 01:29:20;;;;;;;6.05;4.20;;;;;;;17.94;62.47;97766.88;4915922;28;20547;-81
2023/10/09 01:31:54;;;;;;;6.18;4.18;;;;;;;18.10;62.28;97766.72;4931352;28;20256;-81
2023/10/09 01:34:24;;;;;;;7.47;4.25;;;;;;;18.15;62.22;97769.31;4923890;28;20200;-82
2023/10/09 01:36:55;;;;;;;6.63;3.95;;;;;;;18.26;61.83;97767.34;4928947;28;20255;-81
2023/10/09 01:39:23;;;;;;;6.95;4.03;;;;;;;18.24;61.07;97764.22;4930011;28;20212;-81
2023/10/09 01:41:58;;;;;;;7.82;4.20;;;;;;;18.43;61.22;97757.16;4902181;28;20659;-81
2023/10/09 01:44:34;;;;;;;9.18;3.90;;;;;;;18.57;60.30;97764.38;4899383;28;20237;-81
2023/10/09 01:47:07;;;;;;;5.38;3.55;;;;;;;18.46;60.99;97753.19;4930898;28;20204;-81
2023/10/09 01:49:41;;;;;;;10.18;3.90;;;;;;;18.61;60.07;97760.09;4922092;28;20232;-81
2023/10/09 01:52:15;;;;;;;7.50;3.83;;;;;;;18.60;60.03;97758.56;4926561;28;20654;-81
2023/10/09 01:54:41;;;;;;;5.10;3.88;;;;;;;18.66;59.45;97755.59;4937184;28;20305;-81
2023/10/09 01:57:44;;;;;;;8.07;4.25;;;;;;;18.74;59.88;97762.06;4915139;28;20157;-81
2023/10/09 02:00:00;;;;;;;9.52;3.90;;;;;;;18.66;59.73;97750.31;4913834;28;20189;-81
2023/10/09 02:02:33;;;;;;;7.07;3.70;;;;;;;18.69;59.28;97746.31;4896968;28;20192;-81
2023/10/09 02:05:24;;;;;;;7.28;3.78;;;;;;;18.75;60.04;97742.53;4914337;28;20185;-81
2023/10/09 02:07:53;;;;;;;7.72;3.75;;;;;;;18.71;59.37;97746.81;4911822;28;20639;-82
2023/10/09 02:12:58;;;;;;;6.82;3.72;;;;;;;18.70;59.86;97751.31;4936786;28;20197;-81
2023/10/09 02:23:46;;;;;;;8.63;4.10;;;;;;;18.79;59.20;97740.91;4932605;28;20255;-81
2023/10/09 02:29:03;;;;;;;7.60;3.90;;;;;;;18.73;58.74;97734.13;4923780;28;20275;-81
2023/10/09 02:31:40;;;;;;;8.85;3.65;;;;;;;18.73;58.91;97734.13;4914540;28;20211;-81
2023/10/09 02:34:10;;;;;;;8.23;4.05;;;;;;;18.69;59.06;97720.69;4922856;28;20347;-81
2023/10/09 02:36:43;;;;;;;6.25;3.70;;;;;;;18.71;59.29;97715.94;4909133;28;20240;-82
2023/10/09 02:39:24;;;;;;;10.02;3.60;;;;;;;18.67;59.44;97724.69;4926113;28;20038;-82
2023/10/09 02:42:00;;;;;;;7.53;4.03;;;;;;;18.66;59.80;97725.75;4984786;28;20628;-82
2023/10/09 02:44:26;;;;;;;10.15;3.97;;;;;;;18.51;59.21;97721.47;4976509;28;20106;-82
2023/10/09 02:46:57;;;;;;;8.02;4.07;;;;;;;18.46;59.49;97724.94;4973656;28;20041;-82
2023/10/09 02:49:24;;;;;;;6.93;3.63;;;;;;;18.42;59.97;97723.97;4980120;28;20528;-81
2023/10/09 02:51:53;;;;;;;6.47;3.22;;;;;;;18.42;60.48;97731.06;4970596;28;20415;-81
2023/10/09 02:54:26;;;;;;;8.65;3.63;;;;;;;18.38;59.65;97728.19;4907177;28;20166;-82
2023/10/09 02:56:57;;;;;;;6.38;3.45;;;;;;;18.42;59.80;97728.44;4912748;28;20698;-82
2023/10/09 02:59:23;;;;;;;8.68;3.13;;;;;;;18.44;59.66;97726.28;4950448;28;20073;-81
2023/10/09 03:01:53;;;;;;;8.18;3.78;;;;;;;18.50;59.43;97710.13;4995782;28;20570;-81
2023/10/09 03:04:19;;;;;;;9.02;3.90;;;;;;;18.52;58.94;97720.41;4963936;28;20135;-81
2023/10/09 03:06:51;;;;;;;7.45;3.45;;;;;;;18.44;59.14;97708.63;4977277;28;20354;-80
2023/10/09 03:09:18;;;;;;;6.30;3.20;;;;;;;18.55;59.63;97711.91;4972731;28;20115;-81
2023/10/09 03:11:46;;;;;;;8.70;4.13;;;;;;;18.47;59.52;97716.00;4976360;28;20305;-82
2023/10/09 03:14:13;;;;;;;9.02;3.40;;;;;;;18.31;59.90;97706.69;4915762;28;20249;-82
2023/10/09 03:16:38;;;;;;;5.93;3.20;;;;;;;18.33;59.93;97718.53;4911201;28;20380;-81
2023/10/09 03:19:04;;;;;;;6.45;3.65;;;;;;;18.32;59.60;97719.56;4955981;28;20268;-81
2023/10/09 03:21:31;;;;;;;10.32;4.05;;;;;;;18.40;59.89;97715.53;5012469;28;20108;-80
2023/10/09 03:23:58;;;;;;;6.03;3.25;;;;;;;18.37;59.51;97726.66;4948225;28;20049;-81
2023/10/09 03:26:25;;;;;;;5.78;3.40;;;;;;;18.28;59.43;97728.31;4964601;28;20518;-81
2023/10/09 03:28:52;;;;;;;5.35;3.60;;;;;;;18.28;60.46;97731.75;4978238;28;20034;-81
2023/10/09 03:31:18;;;;;;;7.13;3.55;;;;;;;18.26;59.70;97719.91;4974119;28;20030;-81
2023/10/09 03:33:44;;;;;;;9.10;3.80;;;;;;;18.27;59.48;97729.41;4891898;28;20197;-82
2023/10/09 03:36:10;;;;;;;6.28;3.42;;;;;;;18.19;59.81;97719.47;4928818;28;20224;-82
2023/10/09 03:38:39;;;;;;;5.07;2.85;;;;;;;18.27;59.67;97732.03;4912920;28;20352;-82
2023/10/09 03:41:06;;;;;;;6.40;3.80;;;;;;;18.16;59.71;97731.34;4919870;28;20548;-81
2023/10/09 03:43:39;;;;;;;6.90;4.13;;;;;;;18.14;59.93;97725.56;4923163;28;20655;-81
2023/10/09 03:46:08;;;;;;;6.10;3.95;;;;;;;18.16;59.72;97720.78;4912917;28;20364;-81
2023/10/09 03:48:36;;;;;;;7.82;4.25;;;;;;;18.12;60.33;97731.13;4910248;28;20293;-81
2023/10/09 03:51:08;;;;;;;7.43;3.53;;;;;;;18.17;60.18;97732.91;4911275;28;20200;-81
2023/10/09 03:53:39;;;;;;;5.00;3.08;;;;;;;18.13;59.65;97726.66;4929724;28;20365;-81
2023/10/09 03:56:11;;;;;;;5.60;3.88;;;;;;;18.15;60.30;97730.56;4928369;28;20282;-82
2023/10/09 03:58:42;;;;;;;8.02;3.80;;;;;;;18.20;59.56;97734.19;4926019;28;20178;-82
2023/10/09 04:04:01;;;;;;;7.15;3.15;;;;;;;18.18;60.29;97725.78;4968950;28;20034;-82
2023/10/09 04:06:32;;;;;;;7.07;3.78;;;;;;;18.11;59.49;97729.56;4962638;28;20318;-81
2023/10/09 04:12:12;;;;;;;9.43;4.78;;;;;;;18.18;59.45;97723.16;4959496;28;20280;-81
2023/10/09 04:14:48;;;;;;;8.35;4.00;;;;;;;18.10;60.06;97716.66;4915448;28;20292;-81
2023/10/09 04:19:48;;;;;;;5.43;3.33;;;;;;;18.19;60.25;97711.56;4988330;28;20088;-82
2023/10/09 04:22:31;;;;;;;6.10;3.35;;;;;;;18.35;59.51;97718.22;4958350;28;20106;-82
2023/10/09 04:24:59;;;;;;;8.38;3.45;;;;;;;18.27;59.63;97708.31;4944099;28;20031;-81
2023/10/09 04:27:35;;;;;;;6.78;3.25;;;;;;;18.36;58.94;97713.75;4949532;28;20192;-82
2023/10/09 04:30:00;;;;;;;9.90;3.78;;;;;;;18.37;59.38;97705.56;4967983;28;20108;-82
2023/10/09 04:32:26;;;;;;;9.52;4.38;;;;;;;18.29;59.27;97698.28;4961469;28;20228;-82
2023/10/09 04:37:39;;;;;;;10.43;3.40;;;;;;;18.40;59.05;97694.44;4924344;28;20204;-81
2023/10/09 04:42:58;;;;;;;10.35;3.60;;;;;;;18.49;58.23;97698.03;4926092;28;20257;-82
2023/10/09 04:48:09;;;;;;;9.48;4.00;;;;;;;18.49;58.73;97692.75;4936970;28;20269;-81
2023/10/09 04:53:22;;;;;;;9.65;3.80;;;;;;;18.45;58.34;97697.00;4928383;28;20371;-82
2023/10/09 04:55:53;;;;;;;;;;;;;;;18.69;58.27;97698.81;4926376;28;20619;-82
2023/10/09 04:58:24;;;;;;;7.63;3.58;;;;;;;18.44;58.21;97695.44;4912128;28;20240;-82
2023/10/09 05:01:02;;;;;;;7.90;3.60;;;;;;;18.42;58.67;97704.69;4903544;28;20200;-82
2023/10/09 05:03:29;;;;;;;6.72;3.67;;;;;;;18.37;58.93;97700.28;4914489;28;20784;-81
2023/10/09 05:05:58;;;;;;;7.70;3.35;;;;;;;18.45;58.42;97704.13;4928896;28;20155;-82
2023/10/09 05:16:18;;;;;;;8.85;4.07;;;;;;;18.48;58.27;97711.50;4904964;28;20196;-82
2023/10/09 05:18:55;;;;;;;10.20;4.60;;;;;;;18.59;57.81;97718.19;4931956;28;20695;-80
2023/10/09 05:34:34;;;;;;;10.80;3.55;;;;;;;18.43;58.56;97735.28;4929247;28;20453;-81
2023/10/09 05:37:17;;;;;;;8.05;3.53;;;;;;;18.37;58.59;97725.84;4928179;28;20200;-82
2023/10/09 05:40:21;;;;;;;9.65;3.22;;;;;;;18.31;59.23;97725.13;4953951;28;20089;-82
2023/10/09 05:42:42;;;;;;;7.85;4.00;;;;;;;18.40;58.17;97739.25;4942264;28;20453;-81
2023/10/09 05:47:53;;;;;;;9.35;4.32;;;;;;;18.53;58.01;97733.31;4924162;28;20217;-82
2023/10/09 05:50:33;;;;;;;7.72;3.40;;;;;;;18.55;57.81;97730.38;4906647;28;20154;-81
2023/10/09 06:02:44;;;;;;;10.18;5.45;;;;;;;18.41;57.93;97727.66;4924481;28;20209;-82
2023/10/09 06:03:54;;;;;;;9.02;3.92;;;;;;;18.42;58.38;97734.50;4927337;28;20117;-81
2023/10/09 06:11:39;;;;;;;11.50;4.05;;;;;;;18.56;57.40;97737.25;4929588;28;20182;-81
2023/10/09 06:16:59;;;;;;;9.88;4.13;;;;;;;18.56;57.82;97739.06;4917219;28;20752;-81
2023/10/09 06:19:31;;;;;;;8.20;3.67;;;;;;;18.54;57.21;97734.06;4929249;28;20453;-82
2023/10/09 06:24:54;;;;;;;10.95;3.92;;;;;;;18.55;57.50;97742.78;4920153;28;20279;-82
2023/10/09 06:27:57;;;;;;;9.25;3.75;;;;;;;18.54;57.55;97752.53;4911391;28;20298;-82
2023/10/09 06:30:24;;;;;;;10.27;4.15;;;;;;;18.50;57.19;97744.41;4901434;28;20279;-81
2023/10/09 06:32:50;;;;;;;10.60;3.60;;;;;;;18.55;57.17;97742.78;4924093;28;20578;-81
2023/10/09 06:35:17;;;;;;;8.40;4.35;;;;;;;18.55;57.40;97763.88;4932142;28;20318;-82
2023/10/09 06:38:21;;;;;;;8.70;4.05;;;;;;;18.62;57.07;97751.16;4910877;28;20197;-82
2023/10/09 06:45:54;;;;;;;9.00;3.33;;;;;;;18.53;56.95;97757.03;4922418;28;20266;-82
2023/10/09 06:59:21;;;;;;;7.68;3.30;;;;;;;18.72;57.63;97769.47;4920504;28;20757;-82
2023/10/09 07:02:18;;;;;;;8.40;3.97;;;;;;;18.63;57.73;97766.69;4902401;28;20233;-82
2023/10/09 07:07:01;;;;;;;9.25;3.83;;;;;;;18.57;58.06;97770.44;4928437;28;20221;-82
2023/10/09 07:12:20;;;;;;;10.43;4.75;;;;;;;18.67;57.75;97778.22;4896133;28;20311;-82
2023/10/09 07:17:44;;;;;;;7.10;3.42;;;;;;;18.72;57.38;97766.84;4908794;28;20279;-82
2023/10/09 07:20:13;;;;;;;10.77;3.60;;;;;;;18.85;56.54;97773.31;4917959;28;20221;-82
2023/10/09 07:22:52;;;;;;;9.43;4.20;;;;;;;18.83;57.01;97786.00;4898347;28;20297;-81
2023/10/09 07:28:03;;;;;;;9.43;3.55;;;;;;;18.78;57.85;97791.31;4933389;28;20185;-82
2023/10/09 07:32:55;;;;;;;7.95;3.40;;;;;;;18.74;57.68;97804.28;4927053;28;20284;-82
2023/10/09 07:38:08;;;;;;;9.20;3.77;;;;;;;18.90;58.13;97799.63;4960878;28;20034;-81
2023/10/09 07:43:45;;;;;;;8.63;3.60;;;;;;;19.04;58.00;97792.59;4941719;28;20104;-81
2023/10/09 07:49:12;;;;;;;9.13;3.78;;;;;;;19.09;57.62;97794.41;4920857;28;20023;-80
2023/10/09 07:51:38;;;;;;;9.63;3.80;;;;;;;19.07;58.15;97786.75;4906718;28;20176;-81
2023/10/09 07:54:07;;;;;;;11.77;4.40;;;;;;;19.16;57.41;97794.00;4943322;28;20872;-81
2023/10/09 07:56:38;;;;;;;9.70;2.90;;;;;;;19.16;57.21;97788.75;4902059;28;20355;-81
2023/10/09 07:59:10;;;;;;;14.55;4.43;;;;;;;19.22;57.04;97803.44;4944283;28;20117;-82
2023/10/09 08:02:04;;;;;;;6.78;3.28;;;;;;;19.24;57.25;97806.59;4899050;28;20205;-81
2023/10/09 08:04:37;;;;;;;8.60;3.88;;;;;;;19.18;57.01;97797.97;4925723;28;20716;-81
2023/10/09 08:07:08;;;;;;;9.93;3.45;;;;;;;19.38;56.68;97806.66;4900838;28;20285;-82
2023/10/09 08:09:46;;;;;;;10.63;4.18;;;;;;;19.40;56.90;97796.63;4943419;28;20170;-81
2023/10/09 08:12:39;;;;;;;9.23;4.47;;;;;;;19.53;56.32;97805.66;4913401;28;20174;-81
2023/10/09 08:17:54;;;;;;;9.20;4.05;;;;;;;19.70;55.84;97813.06;4922203;28;20125;-80
2023/10/09 08:20:26;;;;;;;9.48;3.97;;;;;;;19.64;56.18;97805.22;4913971;28;20682;-80
2023/10/09 08:22:55;;;;;;;11.27;3.45;;;;;;;19.64;56.62;97810.50;4915608;28;20243;-81
2023/10/09 08:25:28;;;;;;;10.77;3.80;;;;;;;19.74;56.22;97806.13;4911900;28;20147;-80
2023/10/09 08:28:38;;;;;;;8.85;3.60;;;;;;;19.88;56.28;97798.28;4919565;28;20272;-81
2023/10/09 08:35:55;;;;;;;8.27;3.75;;;;;;;19.95;55.75;97802.13;4929683;28;20788;-82
2023/10/09 08:38:24;;;;;;;9.60;3.83;;;;;;;19.99;55.47;97805.75;4929192;28;20320;-82
2023/10/09 08:40:54;;;;;;;8.32;4.18;;;;;;;20.04;55.26;97801.47;4961832;28;20214;-82
2023/10/09 08:43:21;;;;;;;7.25;3.25;;;;;;;20.13;56.17;97811.06;4927493;28;20208;-82
2023/10/09 08:45:48;;;;;;;8.32;4.13;;;;;;;20.10;56.07;97802.94;4894294;28;20205;-81
2023/10/09 08:48:17;;;;;;;8.85;3.72;;;;;;;20.30;54.93;97817.66;4888071;28;20229;-83
2023/10/09 08:50:45;;;;;;;9.50;4.13;;;;;;;20.27;55.42;97810.31;4929859;28;20264;-82
2023/10/09 08:53:12;;;;;;;8.43;3.78;;;;;;;20.46;55.66;97829.53;4912382;28;20201;-82
2023/10/09 08:55:38;;;;;;;11.00;3.72;;;;;;;20.50;55.34;97824.44;4914094;28;20148;-82
2023/10/09 08:58:20;;;;;;;8.13;3.70;;;;;;;20.63;54.72;97814.97;4903176;28;20180;-82
2023/10/09 09:00:46;;;;;;;8.30;4.00;;;;;;;20.67;54.58;97819.38;4961782;28;20701;-81
2023/10/09 09:03:16;;;;;;;5.60;3.13;;;;;;;20.84;54.89;97825.97;4929322;28;20498;-81
2023/10/09 09:05:52;;;;;;;9.38;3.28;;;;;;;20.89;54.30;97825.84;4894466;28;20276;-81
2023/10/09 09:08:30;;;;;;;8.57;3.67;;;;;;;20.95;54.90;97825.44;4902343;28;20279;-81
2023/10/09 09:11:12;;;;;;;9.38;3.38;;;;;;;20.94;55.51;97826.53;4913231;28;20165;-81
2023/10/09 09:13:41;;;;;;;10.63;3.75;;;;;;;20.95;55.14;97814.06;4929018;28;20173;-81
2023/10/09 09:16:22;;;;;;;9.57;4.25;;;;;;;21.04;55.08;97825.56;4922747;28;20456;-81
2023/10/09 09:19:00;;;;;;;7.00;3.35;;;;;;;21.00;54.48;97816.63;4919123;28;20296;-84
2023/10/09 09:21:27;;;;;;;7.95;3.63;;;;;;;20.94;54.49;97815.94;4893357;28;20213;-83
2023/10/09 09:24:01;;;;;;;9.98;3.92;;;;;;;20.91;54.43;97813.88;4899846;28;20178;-83
2023/10/09 09:26:44;;;;;;;9.30;3.97;;;;;;;20.98;54.55;97818.78;4877063;28;20189;-82
2023/10/09 09:29:11;;;;;;;7.97;3.72;;;;;;;20.97;54.00;97819.84;4915966;28;20327;-84
2023/10/09 09:31:39;;;;;;;9.82;3.47;;;;;;;21.07;54.75;97816.22;4897277;28;20158;-81
2023/10/09 09:34:17;;;;;;;11.40;3.80;;;;;;;21.26;54.50;97808.91;4931712;28;20312;-81
2023/10/09 09:36:58;;;;;;;6.40;3.17;;;;;;;21.57;54.62;97823.38;4893913;28;20352;-81
2023/10/09 09:39:30;;;;;;;7.28;3.53;;;;;;;21.74;53.73;97828.78;4896789;28;20216;-82
2023/10/09 09:42:03;;;;;;;8.13;3.40;;;;;;;21.96;52.50;97819.28;4893482;28;20775;-81
2023/10/09 09:44:32;;;;;;;7.22;3.35;;;;;;;22.21;52.64;97813.34;4908990;28;20382;-82
2023/10/09 09:47:01;;;;;;;7.32;2.90;;;;;;;22.43;52.57;97809.88;4928454;28;20169;-81
2023/10/09 09:49:31;;;;;;;10.50;3.80;;;;;;;22.35;50.81;97815.16;4886985;28;20022;-82
2023/10/09 09:52:00;;;;;;;9.73;3.25;;;;;;;22.41;51.96;97796.16;4918497;28;20041;-81
2023/10/09 09:54:27;;;;;;;11.18;4.10;;;;;;;22.16;51.93;97796.78;4918221;28;20491;-80
2023/10/09 09:56:54;;;;;;;7.13;3.00;;;;;;;22.23;52.04;97807.72;4923565;28;20029;-81
2023/10/09 09:59:27;;;;;;;10.70;5.53;;;;;;;22.26;52.32;97809.78;4931585;28;20021;-81
2023/10/09 10:01:57;;;;;;;6.15;3.42;;;;;;;22.24;52.52;97817.25;4947742;28;20042;-81
2023/10/09 10:04:26;;;;;;;11.10;4.03;;;;;;;22.07;52.51;97817.94;4923273;28;20030;-80
2023/10/09 10:06:54;;;;;;;4.40;3.08;;;;;;;21.94;53.09;97810.84;4923080;28;20960;-80
2023/10/09 10:09:44;;;;;;;6.97;3.65;;;;;;;22.15;53.31;97816.44;4923241;28;20852;-81
2023/10/09 10:12:11;;;;;;;8.85;3.38;;;;;;;22.02;52.94;97807.44;4923985;28;20117;-81
2023/10/09 10:15:08;;;;;;;9.93;4.18;;;;;;;21.98;53.05;97801.19;4920700;28;20117;-81
2023/10/09 10:18:07;;;;;;;8.60;5.20;;;;;;;21.73;53.05;97805.25;4913371;28;20030;-81
2023/10/09 10:20:32;;;;;;;6.65;2.85;;;;;;;21.77;53.36;97809.66;4920805;28;20630;-80
2023/10/09 10:23:19;;;;;;;8.57;4.10;;;;;;;22.00;53.54;97822.88;4915211;28;20279;-81
2023/10/09 10:25:50;;;;;;;7.28;3.20;;;;;;;21.95;53.49;97826.47;4911277;28;20188;-81
2023/10/09 10:28:16;;;;;;;7.30;4.22;;;;;;;22.01;53.20;97821.81;4927943;28;20259;-82
2023/10/09 10:30:46;;;;;;;9.00;3.47;;;;;;;22.05;53.62;97817.44;4927713;28;20212;-81
2023/10/09 10:33:15;;;;;;;6.95;3.40;;;;;;;21.90;53.68;97823.94;4928529;28;20200;-81
2023/10/09 10:38:32;;;;;;;8.07;3.30;;;;;;;22.11;53.09;97845.44;4938804;28;20190;-81
2023/10/09 10:41:11;;;;;;;8.63;3.55;;;;;;;22.14;53.51;97836.06;4919589;28;20305;-80
2023/10/09 10:46:41;;;;;;;7.38;3.38;;;;;;;22.06;52.69;97848.19;4928385;28;20194;-82
2023/10/09 10:49:21;;;;;;;9.02;3.45;;;;;;;22.36;51.94;97849.34;4909640;28;20232;-81
2023/10/09 10:52:15;;;;;;;7.38;4.18;;;;;;;22.51;51.26;97831.44;4910623;28;20194;-81
2023/10/09 10:57:29;;;;;;;7.57;3.72;;;;;;;22.87;51.63;97835.78;4927958;28;20660;-81
2023/10/09 11:00:13;;;;;;;7.68;3.30;;;;;;;22.84;51.67;97823.91;4924953;28;21371;-82
2023/10/09 11:02:44;;;;;;;8.02;3.33;;;;;;;23.03;52.10;97836.13;4912549;28;20319;-82
2023/10/09 11:05:23;;;;;;;8.02;4.10;;;;;;;22.94;51.84;97820.94;4910688;28;20209;-81
2023/10/09 11:07:52;;;;;;;5.75;2.90;;;;;;;23.44;51.37;97819.00;4908039;28;20217;-81
2023/10/09 11:10:29;;;;;;;9.10;3.58;;;;;;;24.08;49.33;97813.03;4915913;28;20205;-81
2023/10/09 11:15:44;;;;;;;7.50;3.38;;;;;;;25.79;45.31;97801.25;4926115;28;20227;-81
2023/10/09 11:18:20;;;;;;;6.85;3.28;;;;;;;26.35;44.53;97793.56;4929082;28;20445;-80
2023/10/09 11:21:22;;;;;;;6.15;3.42;;;;;;;26.79;42.43;97802.94;4911813;28;20205;-80
2023/10/09 11:23:57;;;;;;;6.18;3.20;;;;;;;27.59;41.36;97796.06;4916057;28;20559;-82
2023/10/09 11:26:31;;;;;;;8.18;3.70;;;;;;;27.93;39.84;97788.56;4897490;28;20370;-80
2023/10/09 11:32:04;;;;;;;6.70;3.47;;;;;;;28.05;38.83;97796.53;4923360;28;20244;-82
2023/10/09 11:34:31;;;;;;;6.03;3.53;;;;;;;28.04;38.62;97794.97;4919802;28;20204;-81
2023/10/09 11:39:55;;;;;;;5.88;3.40;;;;;;;27.57;38.61;97799.09;4923848;28;20299;-80
2023/10/09 11:45:25;;;;;;;4.85;3.30;;;;;;;26.66;40.48;97789.59;4903937;28;20205;-81
2023/10/09 11:48:05;;;;;;;5.68;3.70;;;;;;;26.10;41.09;97776.00;4892877;28;20644;-81
2023/10/09 11:50:51;;;;;;;5.82;3.20;;;;;;;25.61;42.36;97780.03;4888483;28;20630;-82
2023/10/09 11:53:32;;;;;;;6.38;3.40;;;;;;;25.07;44.75;97777.34;4908168;28;20291;-81
2023/10/09 11:55:58;;;;;;;6.93;3.78;;;;;;;25.41;43.41;97776.31;4906107;28;20175;-82
2023/10/09 11:58:24;;;;;;;6.88;3.08;;;;;;;26.04;41.61;97764.72;4894357;28;20174;-81
2023/10/09 12:00:51;;;;;;;8.70;3.53;;;;;;;26.60;40.95;97758.09;4906167;28;20213;-81
2023/10/09 12:03:17;;;;;;;4.32;3.00;;;;;;;27.18;39.62;97739.16;4923986;28;20162;-82
2023/10/09 12:05:44;;;;;;;6.40;3.50;;;;;;;27.93;38.31;97746.53;4910203;28;20262;-82
2023/10/09 12:08:10;;;;;;;8.32;3.97;;;;;;;28.14;38.53;97735.56;4908643;28;20695;-81
2023/10/09 12:10:38;;;;;;;5.97;3.03;;;;;;;28.54;38.00;97753.31;4908126;28;20241;-82
2023/10/09 12:13:05;;;;;;;6.55;3.72;;;;;;;28.58;39.08;97759.56;4906455;28;20361;-80
2023/10/09 12:15:37;;;;;;;6.78;3.67;;;;;;;28.77;37.78;97755.34;4921962;28;20601;-81
2023/10/09 12:18:06;;;;;;;7.00;3.38;;;;;;;28.29;37.66;97757.31;4894654;28;20657;-80
2023/10/09 12:20:32;;;;;;;7.25;3.83;;;;;;;27.76;36.78;97755.66;4932965;28;20200;-82
2023/10/09 12:23:04;;;;;;;5.75;3.58;;;;;;;27.18;38.93;97757.84;4927420;28;20209;-81
2023/10/09 12:25:34;;;;;;;6.57;3.60;;;;;;;26.90;39.11;97756.72;4902833;28;20209;-82
2023/10/09 12:28:04;;;;;;;5.40;3.30;;;;;;;26.81;40.05;97758.75;4930071;28;20261;-82
2023/10/09 12:30:30;;;;;;;8.20;3.72;;;;;;;26.48;41.63;97740.94;4933429;28;20190;-82
2023/10/09 12:32:58;;;;;;;6.30;3.88;;;;;;;26.26;42.02;97744.84;4897373;28;20224;-82
2023/10/09 12:35:25;;;;;;;6.80;3.53;;;;;;;26.13;42.14;97743.28;4915775;28;20188;-82
2023/10/09 12:37:51;;;;;;;5.72;3.38;;;;;;;26.16;42.12;97750.63;4915068;28;20192;-82
2023/10/09 12:40:24;;;;;;;5.78;3.83;;;;;;;26.15;41.88;97741.84;4896104;28;20352;-81
2023/10/09 12:42:52;;;;;;;5.70;3.10;;;;;;;26.08;43.11;97730.16;4911365;28;20427;-81
2023/10/09 12:45:25;;;;;;;5.95;3.78;;;;;;;26.00;42.09;97725.72;4918890;28;20204;-82
2023/10/09 12:47:59;;;;;;;6.75;3.95;;;;;;;26.00;39.82;97721.16;4895578;28;20221;-82
2023/10/09 12:50:33;;;;;;;5.20;3.58;;;;;;;26.09;39.60;97729.81;4924675;28;20260;-82
2023/10/09 12:53:02;;;;;;;5.95;3.20;;;;;;;25.96;39.84;97734.38;4918876;28;20349;-82
2023/10/09 12:55:34;;;;;;;7.30;3.75;;;;;;;25.81;41.16;97729.66;4914803;28;20205;-82
2023/10/09 12:58:08;;;;;;;7.13;4.18;;;;;;;25.83;42.05;97732.75;4894318;28;20174;-82
2023/10/09 13:00:39;;;;;;;7.88;3.70;;;;;;;25.76;40.78;97711.19;4893921;28;20276;-82
2023/10/09 13:03:16;;;;;;;7.47;3.80;;;;;;;25.62;41.04;97706.19;4916627;28;20779;-82
2023/10/09 13:05:51;;;;;;;6.55;3.40;;;;;;;25.63;40.75;97721.03;4902033;28;20026;-82
2023/10/09 13:08:21;;;;;;;6.78;3.78;;;;;;;25.47;41.66;97707.56;4933067;28;20112;-82
2023/10/09 13:11:00;;;;;;;5.95;3.33;;;;;;;25.53;39.94;97703.59;4918975;28;20030;-81
2023/10/09 13:13:42;;;;;;;7.85;3.28;;;;;;;25.43;39.70;97696.03;4926639;28;20038;-82
2023/10/09 13:16:24;;;;;;;5.07;3.17;;;;;;;25.53;40.24;97703.59;4924125;28;20042;-81
2023/10/09 13:18:54;;;;;;;6.82;3.85;;;;;;;25.51;39.56;97700.47;4943571;28;20119;-82
2023/10/09 13:21:21;;;;;;;6.28;3.30;;;;;;;25.44;38.87;97700.22;4927463;28;20331;-82
2023/10/09 13:23:47;;;;;;;6.63;4.18;;;;;;;25.32;40.71;97702.84;4928813;28;20177;-81
2023/10/09 13:26:24;;;;;;;7.13;3.47;;;;;;;25.44;40.63;97692.22;4921283;28;20123;-81
2023/10/09 13:28:51;;;;;;;5.90;3.45;;;;;;;25.50;39.98;97708.78;4907719;28;20154;-82
2023/10/09 13:31:20;;;;;;;7.07;3.33;;;;;;;25.49;39.88;97700.00;4928870;28;20835;-83
2023/10/09 13:33:47;;;;;;;7.68;3.63;;;;;;;25.44;40.00;97699.44;4929213;28;20240;-82
2023/10/09 13:36:17;;;;;;;8.05;3.72;;;;;;;25.54;38.35;97697.13;4928629;28;20192;-82
2023/10/09 13:38:46;;;;;;;5.55;3.10;;;;;;;25.57;39.09;97703.72;4925859;28;20209;-82
2023/10/09 13:41:12;;;;;;;7.57;3.63;;;;;;;25.56;39.79;97702.91;4927151;28;20714;-82
2023/10/09 13:43:40;;;;;;;6.15;3.85;;;;;;;25.55;40.43;97676.56;4928486;28;20631;-82
2023/10/09 13:46:08;;;;;;;8.35;3.75;;;;;;;25.38;41.47;97686.34;4912525;28;20189;-82
2023/10/09 13:48:43;;;;;;;6.30;3.63;;;;;;;25.47;40.20;97688.13;4893194;28;20194;-82
2023/10/09 13:51:17;;;;;;;6.05;3.67;;;;;;;25.43;40.65;97682.69;4893478;28;20272;-82
2023/10/09 13:53:48;;;;;;;6.32;3.75;;;;;;;25.67;40.04;97697.16;4927313;28;20768;-82
2023/10/09 13:56:18;;;;;;;5.78;4.00;;;;;;;25.59;39.59;97688.94;4912448;28;20621;-80
2023/10/09 13:58:44;;;;;;;7.45;3.95;;;;;;;25.66;38.51;97687.63;4905788;28;20205;-81
2023/10/09 14:01:10;;;;;;;7.32;3.80;;;;;;;25.59;39.84;97680.94;4933827;28;20208;-80
2023/10/09 14:03:38;;;;;;;5.00;3.80;;;;;;;25.61;39.17;97683.28;4914769;28;20216;-81
2023/10/09 14:06:12;;;;;;;5.53;3.60;;;;;;;25.53;38.59;97684.94;4908818;28;20643;-81
2023/10/09 14:08:42;;;;;;;6.70;3.40;;;;;;;25.61;39.04;97697.38;4928076;28;20225;-81
2023/10/09 14:11:13;;;;;;;6.50;3.25;;;;;;;25.67;40.15;97686.50;4928815;28;20139;-81
2023/10/09 14:13:39;;;;;;;9.25;3.65;;;;;;;25.68;39.36;97690.72;4922065;28;20207;-80
2023/10/09 14:16:06;;;;;;;8.23;3.97;;;;;;;25.69;39.89;97678.97;4905764;28;20336;-81
2023/10/09 14:18:32;;;;;;;10.50;4.57;;;;;;;25.50;40.60;97688.25;4926019;28;20190;-81